createdAt,value
2019-01-24T00:02:01.399Z,66.27
2019-01-24T00:04:30.302Z,62.93
2019-01-24T00:06:59.628Z,63.53
2019-01-24T00:09:28.462Z,62.87
2019-01-24T00:11:57.378Z,61.63
2019-01-24T00:14:26.399Z,54.80
2019-01-24T00:16:56.534Z,57.87
2019-01-24T00:19:25.851Z,60.57
2019-01-24T00:21:56.729Z,60.07
2019-01-24T00:24:25.715Z,61.30
2019-01-24T00:26:54.626Z,60.53
2019-01-24T00:29:23.548Z,64.10
2019-01-24T00:32:04.646Z,61.07
2019-01-24T00:34:35.478Z,63.53
2019-01-24T00:37:04.740Z,64.80
2019-01-24T00:39:33.726Z,57.13
2019-01-24T00:42:02.645Z,57.77
2019-01-24T00:44:31.926Z,52.60
2019-01-24T00:47:00.934Z,54.43
2019-01-24T00:49:29.896Z,65.77
2019-01-24T00:51:58.946Z,63.00
2019-01-24T00:54:30.994Z,66.83
2019-01-24T00:57:03.207Z,68.03
2019-01-24T01:02:06.797Z,63.40
2019-01-24T01:04:36.007Z,66.63
2019-01-24T01:07:05.383Z,65.97
2019-01-24T01:09:34.327Z,61.83
2019-01-24T01:12:03.694Z,67.87
2019-01-24T01:14:32.634Z,64.70
2019-01-24T01:17:01.906Z,64.33
2019-01-24T01:19:30.866Z,65.93
2019-01-24T01:22:00.870Z,66.27
2019-01-24T01:24:30.552Z,65.93
2019-01-24T01:27:00.292Z,63.67
2019-01-24T01:29:29.498Z,66.87
2019-01-24T01:31:58.419Z,66.37
2019-01-24T01:34:27.726Z,68.30
2019-01-24T01:36:57.235Z,71.07
2019-01-24T01:39:26.149Z,67.27
2019-01-24T01:41:55.395Z,67.13
2019-01-24T01:44:24.437Z,68.43
2019-01-24T01:46:53.422Z,64.53
2019-01-24T01:49:22.310Z,64.40
2019-01-24T01:51:51.244Z,62.20
2019-01-24T01:54:20.163Z,61.93
2019-01-24T01:56:51.160Z,61.70
2019-01-24T01:59:20.080Z,58.73
2019-01-24T02:01:50.690Z,63.00
2019-01-24T02:04:19.944Z,71.53
2019-01-24T02:06:52.068Z,68.83
2019-01-24T02:09:21.248Z,63.93
2019-01-24T02:11:50.198Z,67.40
2019-01-24T02:14:20.685Z,67.03
2019-01-24T02:16:49.595Z,61.80
2019-01-24T02:19:18.409Z,62.73
2019-01-24T02:21:47.319Z,62.17
2019-01-24T02:24:19.256Z,65.50
2019-01-24T02:26:48.505Z,66.20
2019-01-24T02:29:17.391Z,65.37
2019-01-24T02:31:47.321Z,64.17
2019-01-24T02:34:16.455Z,66.73
2019-01-24T02:36:45.645Z,67.73
2019-01-24T02:39:14.926Z,74.57
2019-01-24T02:41:43.840Z,70.63
2019-01-24T02:44:13.695Z,64.43
2019-01-24T02:46:42.672Z,69.17
2019-01-24T02:49:11.970Z,71.73
2019-01-24T02:51:41.330Z,73.67
2019-01-24T02:54:16.742Z,67.23
2019-01-24T02:56:45.703Z,66.13
2019-01-24T02:59:14.584Z,74.40
2019-01-24T03:01:44.438Z,71.70
2019-01-24T03:04:16.623Z,73.87
2019-01-24T03:06:47.469Z,71.00
2019-01-24T03:09:16.662Z,73.67
2019-01-24T03:11:45.900Z,67.00
2019-01-24T03:14:14.822Z,71.13
2019-01-24T03:16:51.217Z,68.20
2019-01-24T03:19:20.764Z,65.13
2019-01-24T03:21:50.125Z,68.70
2019-01-24T03:24:19.249Z,73.63
2019-01-24T03:26:48.498Z,68.30
2019-01-24T03:29:17.336Z,70.97
2019-01-24T03:31:49.743Z,71.27
2019-01-24T03:34:18.968Z,71.43
2019-01-24T03:36:47.867Z,72.77
2019-01-24T03:39:16.755Z,70.97
2019-01-24T03:41:45.756Z,64.33
2019-01-24T03:44:15.019Z,73.30
2019-01-24T03:46:44.705Z,73.50
2019-01-24T03:49:14.416Z,73.07
2019-01-24T03:51:44.058Z,67.60
2019-01-24T03:54:12.976Z,76.73
2019-01-24T03:57:17.799Z,62.90
2019-01-24T03:59:46.708Z,67.97
2019-01-24T04:02:19.048Z,71.60
2019-01-24T04:04:48.440Z,70.83
2019-01-24T04:07:17.396Z,73.17
2019-01-24T04:09:46.304Z,71.33
2019-01-24T04:12:15.544Z,70.93
2019-01-24T04:14:44.472Z,67.87
2019-01-24T04:17:13.771Z,71.10
2019-01-24T04:20:16.258Z,74.27
2019-01-24T04:22:45.386Z,71.40
2019-01-24T04:25:14.576Z,72.17
2019-01-24T04:27:43.490Z,69.63
2019-01-24T04:30:15.499Z,68.73
2019-01-24T04:32:45.256Z,64.47
2019-01-24T04:35:19.774Z,70.40
2019-01-24T04:37:45.798Z,67.60
2019-01-24T04:40:16.112Z,70.23
2019-01-24T04:42:45.101Z,70.30
2019-01-24T04:45:15.541Z,67.13
2019-01-24T04:47:44.613Z,68.60
2019-01-24T04:50:15.196Z,67.47
2019-01-24T04:52:44.860Z,69.57
2019-01-24T04:55:16.288Z,66.47
2019-01-24T04:57:47.062Z,67.77
2019-01-24T05:00:21.743Z,68.13
2019-01-24T05:02:55.075Z,71.67
2019-01-24T05:05:27.882Z,68.70
2019-01-24T05:07:55.079Z,66.93
2019-01-24T05:10:25.827Z,70.90
2019-01-24T05:12:54.738Z,66.03
2019-01-24T05:15:24.743Z,72.07
2019-01-24T05:17:53.740Z,72.73
2019-01-24T05:20:22.725Z,66.93
2019-01-24T05:22:52.008Z,67.97
2019-01-24T05:25:21.035Z,66.20
2019-01-24T05:27:50.274Z,70.40
2019-01-24T05:30:25.980Z,72.60
2019-01-24T05:33:06.769Z,77.77
2019-01-24T05:35:35.779Z,75.00
2019-01-24T05:39:02.785Z,75.97
2019-01-24T05:44:08.082Z,79.97
2019-01-24T05:46:37.435Z,83.53
2019-01-24T05:49:06.380Z,77.27
2019-01-24T05:51:35.672Z,82.40
2019-01-24T05:54:04.642Z,82.20
2019-01-24T05:56:33.564Z,89.53
2019-01-24T05:59:04.439Z,83.63
2019-01-24T06:01:34.454Z,83.03
2019-01-24T06:04:03.531Z,81.90
2019-01-24T06:06:33.250Z,82.00
2019-01-24T06:09:06.449Z,74.57
2019-01-24T06:11:35.396Z,81.07
2019-01-24T06:14:04.426Z,73.23
2019-01-24T06:16:33.908Z,73.20
2019-01-24T06:19:02.931Z,74.33
2019-01-24T06:21:32.987Z,73.63
2019-01-24T06:24:01.882Z,71.73
2019-01-24T06:26:30.794Z,71.90
2019-01-24T06:28:59.679Z,68.47
2019-01-24T06:31:30.803Z,69.67
2019-01-24T06:36:34.883Z,70.03
2019-01-24T06:39:06.001Z,73.53
2019-01-24T06:41:37.998Z,68.67
2019-01-24T06:44:06.991Z,68.83
2019-01-24T06:46:36.757Z,71.70
2019-01-24T06:49:05.680Z,72.33
2019-01-24T06:51:37.004Z,73.63
2019-01-24T06:54:05.959Z,71.70
2019-01-24T06:56:34.866Z,66.50
2019-01-24T06:59:04.614Z,72.23
2019-01-24T07:01:33.935Z,70.30
2019-01-24T07:04:05.910Z,73.40
2019-01-24T07:06:34.931Z,68.63
2019-01-24T07:09:08.764Z,71.07
2019-01-24T07:11:41.303Z,73.10
2019-01-24T07:14:11.475Z,68.57
2019-01-24T07:16:43.678Z,67.40
2019-01-24T07:19:13.325Z,71.23
2019-01-24T07:21:42.187Z,68.60
2019-01-24T07:24:11.574Z,68.97
2019-01-24T07:26:40.467Z,73.83
2019-01-24T07:31:44.639Z,68.00
2019-01-24T07:34:14.590Z,69.77
2019-01-24T07:36:43.948Z,63.80
2019-01-24T07:39:12.936Z,70.73
2019-01-24T07:41:42.731Z,67.73
2019-01-24T07:44:12.537Z,69.40
2019-01-24T07:46:47.044Z,71.97
2019-01-24T07:49:16.100Z,65.97
2019-01-24T07:51:45.445Z,62.00
2019-01-24T07:54:14.502Z,65.17
2019-01-24T07:56:43.797Z,65.23
2019-01-24T07:59:13.029Z,65.87
2019-01-24T08:01:43.310Z,62.03
2019-01-24T08:04:13.182Z,69.63
2019-01-24T08:06:42.196Z,67.90
2019-01-24T08:09:12.109Z,71.13
2019-01-24T08:11:41.179Z,71.17
2019-01-24T08:14:10.150Z,66.30
2019-01-24T08:16:41.023Z,67.90
2019-01-24T08:19:10.004Z,60.93
2019-01-24T08:21:51.031Z,66.90
2019-01-24T08:24:22.458Z,68.07
2019-01-24T08:26:51.488Z,70.17
2019-01-24T08:29:20.478Z,61.40
2019-01-24T08:31:50.546Z,66.10
2019-01-24T08:34:20.444Z,66.60
2019-01-24T08:36:55.968Z,69.53
2019-01-24T08:39:25.242Z,69.20
2019-01-24T08:41:55.405Z,68.70
2019-01-24T08:44:27.599Z,68.73
2019-01-24T08:47:00.292Z,64.87
2019-01-24T08:49:29.899Z,63.73
2019-01-24T08:51:58.818Z,65.27
2019-01-24T08:54:27.741Z,70.37
2019-01-24T08:56:56.998Z,62.67
2019-01-24T09:01:48.758Z,66.83
2019-01-24T09:04:21.361Z,64.93
2019-01-24T09:06:53.609Z,69.77
2019-01-24T09:09:23.563Z,67.87
2019-01-24T09:11:56.057Z,67.87
2019-01-24T09:14:24.984Z,62.07
2019-01-24T09:16:53.860Z,65.60
2019-01-24T09:19:23.139Z,68.73
2019-01-24T09:21:53.267Z,67.97
2019-01-24T09:24:22.301Z,67.43
2019-01-24T09:26:51.574Z,68.80
2019-01-24T09:29:22.336Z,64.03
2019-01-24T09:31:51.412Z,66.07
2019-01-24T09:34:20.788Z,68.63
2019-01-24T09:36:50.162Z,65.07
2019-01-24T09:39:19.512Z,66.53
2019-01-24T09:41:48.855Z,66.70
2019-01-24T09:44:17.749Z,67.60
2019-01-24T09:46:47.096Z,66.60
2019-01-24T09:49:16.078Z,64.90
2019-01-24T09:51:45.673Z,68.60
2019-01-24T09:54:14.972Z,64.47
2019-01-24T09:56:43.905Z,67.50
2019-01-24T09:59:13.263Z,65.43
2019-01-24T10:01:43.169Z,73.30
2019-01-24T10:04:12.915Z,65.67
2019-01-24T10:06:42.285Z,68.17
2019-01-24T10:09:11.264Z,67.40
2019-01-24T10:11:40.198Z,72.93
2019-01-24T10:14:10.022Z,73.83
2019-01-24T10:16:39.011Z,65.57
2019-01-24T10:19:07.951Z,68.20
2019-01-24T10:21:37.212Z,67.57
2019-01-24T10:24:07.403Z,65.33
2019-01-24T10:26:36.618Z,67.53
2019-01-24T10:29:08.871Z,65.10
2019-01-24T10:31:38.221Z,68.00
2019-01-24T10:34:07.557Z,64.27
2019-01-24T10:36:42.833Z,65.13
2019-01-24T10:39:12.359Z,71.23
2019-01-24T10:41:41.926Z,69.77
2019-01-24T10:44:11.143Z,66.53
2019-01-24T10:46:40.138Z,65.80
2019-01-24T10:49:09.490Z,73.07
2019-01-24T10:51:38.490Z,70.33
2019-01-24T10:54:09.464Z,64.13
2019-01-24T10:56:38.483Z,68.43
2019-01-24T10:59:07.870Z,68.43
2019-01-24T11:01:36.942Z,70.03
2019-01-24T11:04:06.265Z,66.13
2019-01-24T11:06:35.494Z,70.27
2019-01-24T11:09:06.928Z,68.00
2019-01-24T11:11:36.252Z,66.57
2019-01-24T11:14:05.572Z,69.43
2019-01-24T11:16:35.032Z,67.07
2019-01-24T11:19:04.384Z,64.93
2019-01-24T11:21:39.982Z,65.17
2019-01-24T11:24:09.001Z,66.50
2019-01-24T11:26:38.914Z,64.70
2019-01-24T11:29:07.886Z,63.33
2019-01-24T11:31:37.297Z,64.63
2019-01-24T11:34:07.743Z,64.83
2019-01-24T11:36:37.458Z,69.20
2019-01-24T11:39:08.321Z,65.67
2019-01-24T11:41:37.618Z,66.17
2019-01-24T11:44:06.870Z,63.37
2019-01-24T11:46:36.192Z,67.40
2019-01-24T11:49:05.271Z,66.27
2019-01-24T11:51:34.304Z,66.63
2019-01-24T11:54:03.275Z,62.30
2019-01-24T11:56:32.293Z,68.07
2019-01-24T11:59:02.050Z,65.37
2019-01-24T12:01:31.509Z,66.13
2019-01-24T12:04:01.161Z,63.53
2019-01-24T12:06:30.249Z,61.93
2019-01-24T12:08:59.524Z,63.47
2019-01-24T12:11:31.664Z,65.80
2019-01-24T12:14:00.772Z,66.30
2019-01-24T12:16:30.218Z,64.80
2019-01-24T12:19:02.277Z,65.00
2019-01-24T12:21:31.558Z,64.40
2019-01-24T12:24:00.573Z,66.57
2019-01-24T12:26:29.566Z,65.07
2019-01-24T12:29:02.119Z,66.23
2019-01-24T12:31:31.342Z,63.77
2019-01-24T12:34:00.560Z,65.53
2019-01-24T12:36:29.478Z,68.40
2019-01-24T12:39:10.119Z,67.63
2019-01-24T12:41:39.701Z,66.27
2019-01-24T12:44:08.684Z,67.90
2019-01-24T12:46:39.454Z,65.87
2019-01-24T12:49:08.628Z,66.90
2019-01-24T12:51:38.650Z,69.40
2019-01-24T12:54:07.973Z,68.93
2019-01-24T12:56:36.871Z,70.43
2019-01-24T12:59:06.346Z,67.70
2019-01-24T13:01:35.298Z,71.23
2019-01-24T13:04:04.313Z,73.27
2019-01-24T13:06:33.254Z,64.60
2019-01-24T13:09:05.962Z,69.17
2019-01-24T13:11:34.870Z,68.23
2019-01-24T13:14:03.842Z,68.07
2019-01-24T13:16:36.290Z,69.13
2019-01-24T13:19:05.478Z,71.87
2019-01-24T13:21:37.568Z,72.77
2019-01-24T13:24:10.242Z,73.07
2019-01-24T13:26:41.117Z,72.43
2019-01-24T13:29:13.000Z,72.80
2019-01-24T13:31:45.540Z,73.63
2019-01-24T13:34:16.942Z,76.00
2019-01-24T13:36:45.959Z,75.67
2019-01-24T13:39:15.171Z,73.03
2019-01-24T13:41:44.215Z,81.93
2019-01-24T13:44:13.209Z,77.47
2019-01-24T13:46:42.432Z,76.70
2019-01-24T13:49:11.436Z,73.80
2019-01-24T13:51:40.416Z,75.10
2019-01-24T13:54:09.352Z,74.60
2019-01-24T13:56:38.388Z,71.33
2019-01-24T13:59:07.588Z,78.43
2019-01-24T14:01:37.516Z,70.10
2019-01-24T14:04:31.440Z,81.43
2019-01-24T14:07:00.386Z,79.47
2019-01-24T14:09:29.345Z,72.17
2019-01-24T14:11:58.435Z,78.47
2019-01-24T14:14:28.256Z,76.50
2019-01-24T14:16:57.268Z,77.77
2019-01-24T14:19:26.610Z,81.97
2019-01-24T14:21:56.495Z,83.50
2019-01-24T14:27:01.277Z,73.27
2019-01-24T14:29:31.540Z,80.63
2019-01-24T14:32:02.428Z,79.43
2019-01-24T14:34:31.181Z,83.20
2019-01-24T14:37:00.212Z,80.17
2019-01-24T14:39:29.627Z,76.27
2019-01-24T14:42:02.010Z,87.10
2019-01-24T14:44:34.297Z,83.20
2019-01-24T14:47:03.676Z,83.00
2019-01-24T14:49:32.613Z,75.30
2019-01-24T14:52:01.690Z,81.80
2019-01-24T14:54:30.914Z,82.63
2019-01-24T14:56:59.878Z,77.77
2019-01-24T14:59:28.816Z,82.83
2019-01-24T15:01:58.083Z,84.33
2019-01-24T15:04:27.087Z,84.47
2019-01-24T15:07:08.110Z,78.00
2019-01-24T15:09:38.256Z,85.10
2019-01-24T15:12:07.794Z,84.40
2019-01-24T15:14:37.258Z,81.33
2019-01-24T15:17:06.500Z,77.00
2019-01-24T15:19:39.260Z,81.53
2019-01-24T15:22:11.750Z,82.73
2019-01-24T15:24:40.836Z,82.90
2019-01-24T15:27:09.946Z,83.40
2019-01-24T15:29:42.047Z,81.87
2019-01-24T15:32:11.393Z,80.30
2019-01-24T15:34:43.150Z,82.03
2019-01-24T15:37:12.954Z,83.63
2019-01-24T15:39:41.910Z,82.27
2019-01-24T15:42:11.004Z,81.20
2019-01-24T15:44:40.112Z,80.90
2019-01-24T15:47:09.217Z,84.50
2019-01-24T15:49:39.430Z,88.83
2019-01-24T15:52:08.363Z,82.10
2019-01-24T15:54:37.658Z,86.13
2019-01-24T15:57:07.437Z,79.83
2019-01-24T15:59:40.413Z,85.63
2019-01-24T16:02:12.893Z,76.07
2019-01-24T16:04:41.924Z,77.97
2019-01-24T16:07:11.012Z,77.87
2019-01-24T16:09:46.287Z,84.33
2019-01-24T16:12:15.341Z,80.47
2019-01-24T16:14:44.346Z,89.90
2019-01-24T16:17:16.496Z,84.97
2019-01-24T16:19:45.957Z,82.87
2019-01-24T16:22:15.374Z,79.40
2019-01-24T16:24:44.978Z,83.90
2019-01-24T16:27:14.298Z,81.00
2019-01-24T16:29:43.348Z,79.47
2019-01-24T16:32:15.413Z,83.93
2019-01-24T16:34:44.308Z,83.67
2019-01-24T16:37:14.817Z,79.57
2019-01-24T16:39:43.780Z,82.33
2019-01-24T16:42:13.069Z,80.23
2019-01-24T16:44:41.997Z,81.73
2019-01-24T16:47:11.818Z,82.83
2019-01-24T16:49:41.032Z,81.47
2019-01-24T16:52:09.939Z,83.17
2019-01-24T16:54:39.247Z,85.40
2019-01-24T16:57:08.717Z,91.60
2019-01-24T16:59:38.356Z,88.33
2019-01-24T17:02:07.561Z,91.93
2019-01-24T17:04:36.504Z,91.63
2019-01-24T17:07:06.641Z,85.17
2019-01-24T17:09:38.954Z,85.80
2019-01-24T17:12:07.880Z,86.43
2019-01-24T17:14:37.803Z,86.63
2019-01-24T17:17:07.150Z,81.60
2019-01-24T17:19:36.188Z,84.93
2019-01-24T17:22:11.973Z,83.47
2019-01-24T17:24:41.161Z,85.90
2019-01-24T17:27:10.169Z,87.17
2019-01-24T17:29:40.622Z,87.60
2019-01-24T17:32:09.942Z,90.10
2019-01-24T17:34:39.332Z,82.00
2019-01-24T17:37:09.028Z,79.60
2019-01-24T17:39:38.408Z,85.83
2019-01-24T17:42:07.319Z,90.13
2019-01-24T17:44:36.365Z,82.63
2019-01-24T17:47:07.637Z,85.00
2019-01-24T17:49:36.755Z,84.23
2019-01-24T17:52:06.071Z,84.67
2019-01-24T17:54:35.164Z,82.37
2019-01-24T17:57:04.164Z,80.80
2019-01-24T17:59:33.517Z,82.33
2019-01-24T18:02:02.542Z,84.30
2019-01-24T18:04:31.849Z,81.67
2019-01-24T18:07:01.124Z,86.37
2019-01-24T18:09:30.958Z,81.90
2019-01-24T18:11:59.999Z,83.17
2019-01-24T18:14:29.224Z,85.90
2019-01-24T18:16:59.007Z,77.47
2019-01-24T18:19:30.032Z,86.17
2019-01-24T18:21:59.473Z,81.07
2019-01-24T18:24:28.573Z,86.10
2019-01-24T18:26:58.385Z,90.27
2019-01-24T18:29:27.289Z,84.80
2019-01-24T18:31:56.344Z,91.00
2019-01-24T18:34:25.409Z,87.27
2019-01-24T18:36:54.398Z,83.90
2019-01-24T18:39:23.358Z,78.80
2019-01-24T18:41:52.308Z,88.40
2019-01-24T18:44:21.995Z,84.30
2019-01-24T18:46:51.686Z,84.87
2019-01-24T18:49:20.777Z,86.10
2019-01-24T18:51:49.691Z,83.00
2019-01-24T18:54:18.699Z,87.63
2019-01-24T18:56:48.294Z,88.97
2019-01-24T18:59:17.333Z,88.43
2019-01-24T19:01:46.698Z,85.20
2019-01-24T19:04:16.038Z,88.80
2019-01-24T19:06:45.082Z,91.37
2019-01-24T19:09:14.987Z,93.90
2019-01-24T19:11:44.820Z,90.77
2019-01-24T19:14:16.846Z,86.43
2019-01-24T19:16:46.212Z,90.70
2019-01-24T19:19:15.268Z,93.03
2019-01-24T19:21:44.726Z,91.73
2019-01-24T19:24:13.641Z,90.37
2019-01-24T19:26:42.966Z,96.00
2019-01-24T19:29:12.501Z,95.67
2019-01-24T19:31:42.494Z,91.13
2019-01-24T19:34:11.870Z,87.53
2019-01-24T19:36:41.569Z,88.77
2019-01-24T19:39:11.835Z,89.23
2019-01-24T19:41:40.978Z,86.77
2019-01-24T19:44:15.662Z,82.83
2019-01-24T19:46:41.065Z,89.40
2019-01-24T19:49:10.071Z,79.80
2019-01-24T19:51:39.268Z,85.37
2019-01-24T19:54:08.275Z,86.87
2019-01-24T19:56:37.628Z,83.53
2019-01-24T19:59:06.955Z,83.97
2019-01-24T20:01:37.717Z,84.80
2019-01-24T20:04:06.770Z,85.60
2019-01-24T20:06:36.182Z,81.57
2019-01-24T20:09:08.324Z,84.80
2019-01-24T20:11:37.467Z,77.70
2019-01-24T20:14:06.993Z,76.70
2019-01-24T20:16:36.119Z,83.30
2019-01-24T20:19:06.210Z,86.57
2019-01-24T20:21:35.329Z,85.77
2019-01-24T20:24:07.827Z,89.20
2019-01-24T20:26:40.886Z,81.70
2019-01-24T20:29:10.448Z,80.27
2019-01-24T20:31:40.388Z,80.73
2019-01-24T20:34:09.476Z,78.83
2019-01-24T20:36:38.582Z,81.53
2019-01-24T20:39:09.647Z,83.73
2019-01-24T20:41:38.842Z,85.30
2019-01-24T20:44:08.794Z,82.30
2019-01-24T20:46:38.309Z,88.97
2019-01-24T20:49:08.806Z,89.13
2019-01-24T20:51:38.039Z,90.90
2019-01-24T20:54:07.558Z,86.17
2019-01-24T20:56:36.758Z,80.97
2019-01-24T20:59:05.949Z,85.10
2019-01-24T21:01:35.979Z,86.23
2019-01-24T21:04:05.262Z,86.17
2019-01-24T21:06:34.730Z,80.77
2019-01-24T21:09:14.471Z,79.43
2019-01-24T21:11:39.350Z,88.80
2019-01-24T21:14:08.875Z,78.63
2019-01-24T21:16:39.879Z,86.57
2019-01-24T21:19:09.221Z,88.47
2019-01-24T21:21:38.659Z,81.33
2019-01-24T21:24:07.844Z,87.17
2019-01-24T21:26:36.936Z,79.13
2019-01-24T21:29:06.008Z,82.97
2019-01-24T21:31:35.166Z,76.47
2019-01-24T21:34:05.130Z,93.90
2019-01-24T21:36:35.040Z,84.37
2019-01-24T21:39:07.921Z,76.77
2019-01-24T21:41:37.354Z,86.67
2019-01-24T21:46:42.499Z,85.27
2019-01-24T21:49:12.437Z,86.37
2019-01-24T21:51:43.359Z,87.43
2019-01-24T21:54:13.031Z,90.47
2019-01-24T21:56:42.065Z,83.53
2019-01-24T21:59:11.851Z,89.63
2019-01-24T22:01:42.266Z,83.60
2019-01-24T22:04:11.669Z,87.73
2019-01-24T22:06:41.217Z,84.47
2019-01-24T22:09:10.670Z,90.37
2019-01-24T22:11:40.464Z,83.90
2019-01-24T22:14:16.304Z,79.03
2019-01-24T22:16:45.457Z,89.10
2019-01-24T22:19:15.562Z,87.70
2019-01-24T22:22:39.273Z,85.10
2019-01-24T22:25:11.646Z,83.97
2019-01-24T22:27:40.824Z,83.13
2019-01-24T22:30:17.972Z,82.33
2019-01-24T22:32:47.055Z,85.10
2019-01-24T22:35:16.533Z,86.07
2019-01-24T22:37:45.665Z,86.07
2019-01-24T22:40:15.661Z,77.33
2019-01-24T22:42:44.674Z,86.63
2019-01-24T22:45:17.410Z,92.60
2019-01-24T22:47:46.778Z,78.90
2019-01-24T22:50:16.288Z,85.93
2019-01-24T22:52:45.430Z,84.67
2019-01-24T22:55:14.639Z,88.73
2019-01-24T22:57:44.380Z,85.20
2019-01-24T23:00:48.244Z,84.63
2019-01-24T23:03:22.917Z,88.13
2019-01-24T23:05:52.427Z,77.30
2019-01-24T23:08:21.711Z,86.57
2019-01-24T23:10:53.907Z,82.67
2019-01-24T23:13:23.120Z,86.63
2019-01-24T23:15:52.536Z,85.67
2019-01-24T23:20:59.062Z,87.23
2019-01-24T23:23:29.220Z,83.03
2019-01-24T23:25:59.995Z,82.53
2019-01-24T23:28:29.028Z,80.33
2019-01-24T23:30:58.346Z,83.60
2019-01-24T23:33:28.489Z,87.67
2019-01-24T23:35:58.739Z,82.63
2019-01-24T23:38:27.859Z,87.10
2019-01-24T23:41:03.330Z,84.50
2019-01-24T23:43:33.591Z,86.97
2019-01-24T23:46:02.688Z,82.30
2019-01-24T23:48:32.365Z,86.23
2019-01-24T23:51:01.648Z,89.83
2019-01-24T23:53:31.354Z,81.93
2019-01-24T23:56:02.023Z,92.20
2019-01-24T23:58:31.435Z,92.33
